sensor_id;sensor_type;location;lat;lon;timestamp;P1;durP1;ratioP1;P2;durP2;ratioP2
13032;SDS011;6583;42.632;23.298;2023-10-09T00:00:32;6.32;;;2.40;;
13032;SDS011;6583;42.632;23.298;2023-10-09T00:03:15;6.15;;;2.25;;
13032;SDS011;6583;42.632;23.298;2023-10-09T00:05:43;7.88;;;2.45;;
13032;SDS011;6583;42.632;23.298;2023-10-09T00:08:13;7.80;;;2.30;;
13032;SDS011;6583;42.632;23.298;2023-10-09T00:10:47;8.05;;;2.28;;
13032;SDS011;6583;42.632;23.298;2023-10-09T00:13:19;6.70;;;2.55;;
13032;SDS011;6583;42.632;23.298;2023-10-09T00:15:45;4.60;;;2.28;;
13032;SDS011;6583;42.632;23.298;2023-10-09T00:18:17;4.97;;;2.03;;
13032;SDS011;6583;42.632;23.298;2023-10-09T00:20:53;6.80;;;2.28;;
13032;SDS011;6583;42.632;23.298;2023-10-09T00:23:21;6.38;;;2.60;;
13032;SDS011;6583;42.632;23.298;2023-10-09T00:25:50;7.07;;;2.08;;
13032;SDS011;6583;42.632;23.298;2023-10-09T00:28:33;4.03;;;2.17;;
13032;SDS011;6583;42.632;23.298;2023-10-09T00:31:02;4.80;;;1.98;;
13032;SDS011;6583;42.632;23.298;2023-10-09T00:33:32;4.18;;;2.00;;
13032;SDS011;6583;42.632;23.298;2023-10-09T00:36:01;5.28;;;2.03;;
13032;SDS011;6583;42.632;23.298;2023-10-09T00:38:35;4.55;;;1.50;;
13032;SDS011;6583;42.632;23.298;2023-10-09T00:41:09;4.60;;;2.10;;
13032;SDS011;6583;42.632;23.298;2023-10-09T00:43:44;3.28;;;1.80;;
13032;SDS011;6583;42.632;23.298;2023-10-09T00:46:14;4.55;;;1.80;;
13032;SDS011;6583;42.632;23.298;2023-10-09T00:48:49;5.70;;;1.98;;
13032;SDS011;6583;42.632;23.298;2023-10-09T00:51:18;4.35;;;1.90;;
13032;SDS011;6583;42.632;23.298;2023-10-09T00:53:49;5.90;;;1.88;;
13032;SDS011;6583;42.632;23.298;2023-10-09T00:56:17;4.95;;;1.80;;
13032;SDS011;6583;42.632;23.298;2023-10-09T00:58:54;3.70;;;1.80;;
13032;SDS011;6583;42.632;23.298;2023-10-09T01:01:26;4.73;;;1.83;;
13032;SDS011;6583;42.632;23.298;2023-10-09T01:04:00;2.40;;;1.67;;
13032;SDS011;6583;42.632;23.298;2023-10-09T01:06:35;2.67;;;1.80;;
13032;SDS011;6583;42.632;23.298;2023-10-09T01:09:10;3.92;;;1.77;;
13032;SDS011;6583;42.632;23.298;2023-10-09T01:11:39;3.80;;;1.77;;
13032;SDS011;6583;42.632;23.298;2023-10-09T01:14:16;3.20;;;1.48;;
13032;SDS011;6583;42.632;23.298;2023-10-09T01:16:46;4.18;;;1.70;;
13032;SDS011;6583;42.632;23.298;2023-10-09T01:19:13;3.92;;;1.60;;
13032;SDS011;6583;42.632;23.298;2023-10-09T01:21:45;5.60;;;2.17;;
13032;SDS011;6583;42.632;23.298;2023-10-09T01:24:15;3.20;;;1.80;;
13032;SDS011;6583;42.632;23.298;2023-10-09T01:26:45;5.53;;;1.97;;
13032;SDS011;6583;42.632;23.298;2023-10-09T01:29:15;4.77;;;2.00;;
13032;SDS011;6583;42.632;23.298;2023-10-09T01:31:44;3.80;;;1.73;;
13032;SDS011;6583;42.632;23.298;2023-10-09T01:34:20;2.77;;;1.80;;
13032;SDS011;6583;42.632;23.298;2023-10-09T01:36:49;4.05;;;1.58;;
13032;SDS011;6583;42.632;23.298;2023-10-09T01:39:22;4.10;;;1.70;;
13032;SDS011;6583;42.632;23.298;2023-10-09T01:41:53;3.73;;;1.77;;
13032;SDS011;6583;42.632;23.298;2023-10-09T01:44:28;3.67;;;1.53;;
13032;SDS011;6583;42.632;23.298;2023-10-09T01:46:55;2.47;;;1.60;;
13032;SDS011;6583;42.632;23.298;2023-10-09T01:49:23;2.80;;;1.60;;
13032;SDS011;6583;42.632;23.298;2023-10-09T01:51:56;2.60;;;1.50;;
13032;SDS011;6583;42.632;23.298;2023-10-09T01:54:29;3.90;;;1.63;;
13032;SDS011;6583;42.632;23.298;2023-10-09T01:57:02;2.27;;;1.90;;
13032;SDS011;6583;42.632;23.298;2023-10-09T01:59:37;2.80;;;1.87;;
13032;SDS011;6583;42.632;23.298;2023-10-09T02:02:09;2.57;;;1.83;;
13032;SDS011;6583;42.632;23.298;2023-10-09T02:04:49;3.90;;;1.90;;
13032;SDS011;6583;42.632;23.298;2023-10-09T02:07:19;3.90;;;1.73;;
13032;SDS011;6583;42.632;23.298;2023-10-09T02:09:54;4.30;;;1.90;;
13032;SDS011;6583;42.632;23.298;2023-10-09T02:12:21;2.63;;;2.03;;
13032;SDS011;6583;42.632;23.298;2023-10-09T02:14:49;2.23;;;1.67;;
13032;SDS011;6583;42.632;23.298;2023-10-09T02:17:19;2.30;;;1.63;;
13032;SDS011;6583;42.632;23.298;2023-10-09T02:19:50;3.27;;;1.60;;
13032;SDS011;6583;42.632;23.298;2023-10-09T02:22:17;4.00;;;1.70;;
13032;SDS011;6583;42.632;23.298;2023-10-09T02:24:45;3.00;;;1.70;;
13032;SDS011;6583;42.632;23.298;2023-10-09T02:27:24;1.77;;;1.60;;
13032;SDS011;6583;42.632;23.298;2023-10-09T02:30:11;3.83;;;1.60;;
13032;SDS011;6583;42.632;23.298;2023-10-09T02:32:52;2.07;;;1.60;;
13032;SDS011;6583;42.632;23.298;2023-10-09T02:35:28;3.43;;;1.60;;
13032;SDS011;6583;42.632;23.298;2023-10-09T02:38:04;3.53;;;1.60;;
13032;SDS011;6583;42.632;23.298;2023-10-09T02:40:37;2.13;;;1.50;;
13032;SDS011;6583;42.632;23.298;2023-10-09T02:43:27;1.87;;;1.50;;
13032;SDS011;6583;42.632;23.298;2023-10-09T02:45:59;2.60;;;1.60;;
13032;SDS011;6583;42.632;23.298;2023-10-09T02:48:38;2.60;;;1.50;;
13032;SDS011;6583;42.632;23.298;2023-10-09T02:51:07;3.07;;;1.60;;
13032;SDS011;6583;42.632;23.298;2023-10-09T02:53:42;3.07;;;1.40;;
13032;SDS011;6583;42.632;23.298;2023-10-09T02:56:09;2.10;;;1.53;;
13032;SDS011;6583;42.632;23.298;2023-10-09T02:58:40;2.40;;;1.33;;
13032;SDS011;6583;42.632;23.298;2023-10-09T03:01:11;3.63;;;1.70;;
13032;SDS011;6583;42.632;23.298;2023-10-09T03:03:39;4.33;;;1.50;;
13032;SDS011;6583;42.632;23.298;2023-10-09T03:06:10;2.37;;;1.60;;
13032;SDS011;6583;42.632;23.298;2023-10-09T03:08:38;2.97;;;1.40;;
13032;SDS011;6583;42.632;23.298;2023-10-09T03:11:06;2.37;;;1.53;;
13032;SDS011;6583;42.632;23.298;2023-10-09T03:13:40;2.93;;;1.40;;
13032;SDS011;6583;42.632;23.298;2023-10-09T03:16:10;3.13;;;1.67;;
13032;SDS011;6583;42.632;23.298;2023-10-09T03:18:44;1.60;;;1.50;;
13032;SDS011;6583;42.632;23.298;2023-10-09T03:21:12;3.57;;;1.57;;
13032;SDS011;6583;42.632;23.298;2023-10-09T03:23:40;2.80;;;1.50;;
13032;SDS011;6583;42.632;23.298;2023-10-09T03:26:07;2.90;;;1.30;;
13032;SDS011;6583;42.632;23.298;2023-10-09T03:28:36;2.60;;;1.33;;
13032;SDS011;6583;42.632;23.298;2023-10-09T03:31:04;1.60;;;1.40;;
13032;SDS011;6583;42.632;23.298;2023-10-09T03:33:32;1.60;;;1.40;;
13032;SDS011;6583;42.632;23.298;2023-10-09T03:35:59;1.87;;;1.40;;
13032;SDS011;6583;42.632;23.298;2023-10-09T03:38:26;1.93;;;1.30;;
13032;SDS011;6583;42.632;23.298;2023-10-09T03:41:00;2.67;;;1.30;;
13032;SDS011;6583;42.632;23.298;2023-10-09T03:43:30;2.10;;;1.23;;
13032;SDS011;6583;42.632;23.298;2023-10-09T03:45:59;3.20;;;1.20;;
13032;SDS011;6583;42.632;23.298;2023-10-09T03:48:29;3.07;;;1.20;;
13032;SDS011;6583;42.632;23.298;2023-10-09T03:50:59;1.80;;;1.10;;
13032;SDS011;6583;42.632;23.298;2023-10-09T03:53:33;1.70;;;1.50;;
13032;SDS011;6583;42.632;23.298;2023-10-09T03:56:02;2.33;;;1.33;;
13032;SDS011;6583;42.632;23.298;2023-10-09T03:58:36;1.20;;;1.00;;
13032;SDS011;6583;42.632;23.298;2023-10-09T04:01:07;1.63;;;1.00;;
13032;SDS011;6583;42.632;23.298;2023-10-09T04:03:37;1.40;;;0.93;;
13032;SDS011;6583;42.632;23.298;2023-10-09T04:06:04;2.50;;;1.00;;
13032;SDS011;6583;42.632;23.298;2023-10-09T04:08:33;2.63;;;1.20;;
13032;SDS011;6583;42.632;23.298;2023-10-09T04:11:00;1.03;;;0.93;;
13032;SDS011;6583;42.632;23.298;2023-10-09T04:13:30;2.70;;;1.03;;
13032;SDS011;6583;42.632;23.298;2023-10-09T04:16:01;1.83;;;0.90;;
13032;SDS011;6583;42.632;23.298;2023-10-09T04:18:39;1.03;;;0.93;;
13032;SDS011;6583;42.632;23.298;2023-10-09T04:21:10;2.00;;;1.07;;
13032;SDS011;6583;42.632;23.298;2023-10-09T04:23:44;2.17;;;1.10;;
13032;SDS011;6583;42.632;23.298;2023-10-09T04:26:35;1.63;;;1.10;;
13032;SDS011;6583;42.632;23.298;2023-10-09T04:29:07;1.93;;;1.00;;
13032;SDS011;6583;42.632;23.298;2023-10-09T04:31:35;5.87;;;1.10;;
13032;SDS011;6583;42.632;23.298;2023-10-09T04:34:04;5.60;;;1.27;;
13032;SDS011;6583;42.632;23.298;2023-10-09T04:37:00;2.00;;;0.97;;
13032;SDS011;6583;42.632;23.298;2023-10-09T04:39:45;3.30;;;1.27;;
13032;SDS011;6583;42.632;23.298;2023-10-09T04:42:26;2.20;;;1.10;;
13032;SDS011;6583;42.632;23.298;2023-10-09T04:45:02;3.13;;;1.20;;
13032;SDS011;6583;42.632;23.298;2023-10-09T04:47:58;1.10;;;1.00;;
13032;SDS011;6583;42.632;23.298;2023-10-09T04:50:33;2.10;;;1.00;;
13032;SDS011;6583;42.632;23.298;2023-10-09T04:53:11;1.60;;;1.10;;
13032;SDS011;6583;42.632;23.298;2023-10-09T04:55:53;1.27;;;1.10;;
13032;SDS011;6583;42.632;23.298;2023-10-09T04:58:19;1.10;;;1.00;;
13032;SDS011;6583;42.632;23.298;2023-10-09T05:00:50;1.43;;;0.93;;
13032;SDS011;6583;42.632;23.298;2023-10-09T05:03:38;1.43;;;0.90;;
13032;SDS011;6583;42.632;23.298;2023-10-09T05:06:12;8.30;;;2.77;;
13032;SDS011;6583;42.632;23.298;2023-10-09T05:09:08;3.50;;;1.20;;
13032;SDS011;6583;42.632;23.298;2023-10-09T05:11:38;3.17;;;1.00;;
13032;SDS011;6583;42.632;23.298;2023-10-09T05:14:25;3.70;;;1.43;;
13032;SDS011;6583;42.632;23.298;2023-10-09T05:17:03;4.63;;;1.07;;
13032;SDS011;6583;42.632;23.298;2023-10-09T05:19:34;2.77;;;1.20;;
13032;SDS011;6583;42.632;23.298;2023-10-09T05:22:21;14.07;;;3.30;;
13032;SDS011;6583;42.632;23.298;2023-10-09T05:25:01;1.97;;;1.00;;
13032;SDS011;6583;42.632;23.298;2023-10-09T05:27:39;1.13;;;0.83;;
13032;SDS011;6583;42.632;23.298;2023-10-09T05:30:15;1.90;;;1.00;;
13032;SDS011;6583;42.632;23.298;2023-10-09T05:32:52;1.50;;;1.10;;
13032;SDS011;6583;42.632;23.298;2023-10-09T05:35:23;9.10;;;2.00;;
13032;SDS011;6583;42.632;23.298;2023-10-09T05:38:06;1.90;;;1.10;;
13032;SDS011;6583;42.632;23.298;2023-10-09T05:40:48;0.97;;;0.83;;
13032;SDS011;6583;42.632;23.298;2023-10-09T05:43:18;1.80;;;0.90;;
13032;SDS011;6583;42.632;23.298;2023-10-09T05:46:00;1.03;;;0.93;;
13032;SDS011;6583;42.632;23.298;2023-10-09T05:48:40;0.90;;;0.87;;
13032;SDS011;6583;42.632;23.298;2023-10-09T05:51:19;1.40;;;1.00;;
13032;SDS011;6583;42.632;23.298;2023-10-09T05:54:02;1.20;;;1.10;;
13032;SDS011;6583;42.632;23.298;2023-10-09T05:56:49;1.20;;;1.00;;
13032;SDS011;6583;42.632;23.298;2023-10-09T05:59:33;1.20;;;1.10;;
13032;SDS011;6583;42.632;23.298;2023-10-09T06:02:17;1.40;;;1.00;;
13032;SDS011;6583;42.632;23.298;2023-10-09T06:04:58;1.30;;;1.20;;
13032;SDS011;6583;42.632;23.298;2023-10-09T06:07:25;2.50;;;1.10;;
13032;SDS011;6583;42.632;23.298;2023-10-09T06:10:13;1.00;;;0.90;;
13032;SDS011;6583;42.632;23.298;2023-10-09T06:12:57;1.90;;;1.20;;
13032;SDS011;6583;42.632;23.298;2023-10-09T06:15:28;1.73;;;1.40;;
13032;SDS011;6583;42.632;23.298;2023-10-09T06:18:15;1.93;;;1.00;;
13032;SDS011;6583;42.632;23.298;2023-10-09T06:20:57;1.20;;;1.10;;
13032;SDS011;6583;42.632;23.298;2023-10-09T06:23:35;1.43;;;1.10;;
13032;SDS011;6583;42.632;23.298;2023-10-09T06:26:35;1.67;;;1.50;;
13032;SDS011;6583;42.632;23.298;2023-10-09T06:29:02;1.30;;;1.00;;
13032;SDS011;6583;42.632;23.298;2023-10-09T06:31:41;1.83;;;1.20;;
13032;SDS011;6583;42.632;23.298;2023-10-09T06:34:22;1.20;;;1.10;;
13032;SDS011;6583;42.632;23.298;2023-10-09T06:36:57;1.43;;;1.30;;
13032;SDS011;6583;42.632;23.298;2023-10-09T06:39:30;1.57;;;1.30;;
13032;SDS011;6583;42.632;23.298;2023-10-09T06:42:16;1.30;;;1.20;;
13032;SDS011;6583;42.632;23.298;2023-10-09T06:44:59;2.13;;;1.17;;
13032;SDS011;6583;42.632;23.298;2023-10-09T06:47:29;1.03;;;1.00;;
13032;SDS011;6583;42.632;23.298;2023-10-09T06:50:02;3.53;;;1.63;;
13032;SDS011;6583;42.632;23.298;2023-10-09T06:52:55;1.57;;;1.17;;
13032;SDS011;6583;42.632;23.298;2023-10-09T06:55:44;2.30;;;1.20;;
13032;SDS011;6583;42.632;23.298;2023-10-09T06:58:18;2.13;;;1.23;;
13032;SDS011;6583;42.632;23.298;2023-10-09T07:00:53;1.03;;;0.97;;
13032;SDS011;6583;42.632;23.298;2023-10-09T07:03:44;2.20;;;1.07;;
13032;SDS011;6583;42.632;23.298;2023-10-09T07:06:25;3.33;;;1.40;;
13032;SDS011;6583;42.632;23.298;2023-10-09T07:09:06;0.97;;;0.97;;
13032;SDS011;6583;42.632;23.298;2023-10-09T07:11:44;1.10;;;1.00;;
13032;SDS011;6583;42.632;23.298;2023-10-09T07:14:30;1.93;;;1.10;;
13032;SDS011;6583;42.632;23.298;2023-10-09T07:17:15;3.20;;;1.37;;
13032;SDS011;6583;42.632;23.298;2023-10-09T07:19:47;1.10;;;1.00;;
13032;SDS011;6583;42.632;23.298;2023-10-09T07:22:38;1.10;;;1.00;;
13032;SDS011;6583;42.632;23.298;2023-10-09T07:25:21;1.53;;;1.30;;
13032;SDS011;6583;42.632;23.298;2023-10-09T07:28:06;1.17;;;1.07;;
13032;SDS011;6583;42.632;23.298;2023-10-09T07:30:56;2.77;;;1.20;;
13032;SDS011;6583;42.632;23.298;2023-10-09T07:33:24;1.80;;;1.00;;
13032;SDS011;6583;42.632;23.298;2023-10-09T07:36:17;1.60;;;1.40;;
13032;SDS011;6583;42.632;23.298;2023-10-09T07:38:54;1.60;;;1.20;;
13032;SDS011;6583;42.632;23.298;2023-10-09T07:41:29;0.90;;;0.90;;
13032;SDS011;6583;42.632;23.298;2023-10-09T07:44:09;1.50;;;1.10;;
13032;SDS011;6583;42.632;23.298;2023-10-09T07:47:01;2.53;;;1.17;;
13032;SDS011;6583;42.632;23.298;2023-10-09T07:49:48;1.37;;;1.10;;
13032;SDS011;6583;42.632;23.298;2023-10-09T07:52:16;1.37;;;1.20;;
13032;SDS011;6583;42.632;23.298;2023-10-09T07:54:45;1.93;;;1.30;;
13032;SDS011;6583;42.632;23.298;2023-10-09T07:57:19;1.50;;;1.03;;
13032;SDS011;6583;42.632;23.298;2023-10-09T07:59:54;2.03;;;1.10;;
13032;SDS011;6583;42.632;23.298;2023-10-09T08:02:28;1.30;;;1.20;;
13032;SDS011;6583;42.632;23.298;2023-10-09T08:04:58;2.13;;;1.20;;
13032;SDS011;6583;42.632;23.298;2023-10-09T08:07:32;1.03;;;1.03;;
13032;SDS011;6583;42.632;23.298;2023-10-09T08:10:03;2.73;;;1.30;;
13032;SDS011;6583;42.632;23.298;2023-10-09T08:12:48;1.27;;;1.17;;
13032;SDS011;6583;42.632;23.298;2023-10-09T08:15:24;1.20;;;1.10;;
13032;SDS011;6583;42.632;23.298;2023-10-09T08:18:00;1.73;;;1.63;;
13032;SDS011;6583;42.632;23.298;2023-10-09T08:20:35;2.83;;;1.30;;
13032;SDS011;6583;42.632;23.298;2023-10-09T08:23:36;1.10;;;1.00;;
13032;SDS011;6583;42.632;23.298;2023-10-09T08:26:14;1.00;;;0.97;;
13032;SDS011;6583;42.632;23.298;2023-10-09T08:28:53;1.63;;;1.00;;
13032;SDS011;6583;42.632;23.298;2023-10-09T08:31:40;1.90;;;1.23;;
13032;SDS011;6583;42.632;23.298;2023-10-09T08:34:11;3.73;;;1.17;;
13032;SDS011;6583;42.632;23.298;2023-10-09T08:36:50;1.10;;;1.00;;
13032;SDS011;6583;42.632;23.298;2023-10-09T08:39:19;1.37;;;1.00;;
13032;SDS011;6583;42.632;23.298;2023-10-09T08:41:52;0.90;;;0.90;;
13032;SDS011;6583;42.632;23.298;2023-10-09T08:44:19;1.40;;;1.20;;
13032;SDS011;6583;42.632;23.298;2023-10-09T08:46:48;2.33;;;0.90;;
13032;SDS011;6583;42.632;23.298;2023-10-09T08:49:17;1.23;;;1.07;;
13032;SDS011;6583;42.632;23.298;2023-10-09T08:51:46;1.30;;;1.10;;
13032;SDS011;6583;42.632;23.298;2023-10-09T08:54:13;1.40;;;1.20;;
13032;SDS011;6583;42.632;23.298;2023-10-09T08:56:40;1.47;;;1.00;;
13032;SDS011;6583;42.632;23.298;2023-10-09T08:59:15;1.57;;;1.17;;
13032;SDS011;6583;42.632;23.298;2023-10-09T09:01:43;1.33;;;1.20;;
13032;SDS011;6583;42.632;23.298;2023-10-09T09:04:30;1.57;;;1.10;;
13032;SDS011;6583;42.632;23.298;2023-10-09T09:07:03;1.63;;;1.17;;
13032;SDS011;6583;42.632;23.298;2023-10-09T09:09:30;1.50;;;1.07;;
13032;SDS011;6583;42.632;23.298;2023-10-09T09:11:59;1.10;;;1.00;;
13032;SDS011;6583;42.632;23.298;2023-10-09T09:14:34;1.90;;;0.93;;
13032;SDS011;6583;42.632;23.298;2023-10-09T09:17:02;4.27;;;1.00;;
13032;SDS011;6583;42.632;23.298;2023-10-09T09:19:30;1.20;;;1.10;;
13032;SDS011;6583;42.632;23.298;2023-10-09T09:22:04;2.27;;;1.10;;
13032;SDS011;6583;42.632;23.298;2023-10-09T09:24:40;1.53;;;1.03;;
13032;SDS011;6583;42.632;23.298;2023-10-09T09:27:25;1.60;;;1.10;;
13032;SDS011;6583;42.632;23.298;2023-10-09T09:30:27;1.20;;;1.10;;
13032;SDS011;6583;42.632;23.298;2023-10-09T09:32:58;1.40;;;1.03;;
13032;SDS011;6583;42.632;23.298;2023-10-09T09:35:55;1.27;;;1.10;;
13032;SDS011;6583;42.632;23.298;2023-10-09T09:38:26;2.77;;;0.97;;
13032;SDS011;6583;42.632;23.298;2023-10-09T09:40:54;1.83;;;1.53;;
13032;SDS011;6583;42.632;23.298;2023-10-09T09:43:27;3.63;;;0.93;;
13032;SDS011;6583;42.632;23.298;2023-10-09T09:45:56;3.43;;;1.00;;
13032;SDS011;6583;42.632;23.298;2023-10-09T09:48:23;1.67;;;1.10;;
13032;SDS011;6583;42.632;23.298;2023-10-09T09:50:52;1.50;;;1.17;;
13032;SDS011;6583;42.632;23.298;2023-10-09T09:53:19;1.10;;;1.00;;
13032;SDS011;6583;42.632;23.298;2023-10-09T09:55:50;2.70;;;1.10;;
13032;SDS011;6583;42.632;23.298;2023-10-09T09:58:22;1.17;;;1.00;;
13032;SDS011;6583;42.632;23.298;2023-10-09T10:00:53;1.30;;;1.20;;
13032;SDS011;6583;42.632;23.298;2023-10-09T10:03:26;1.10;;;1.00;;
13032;SDS011;6583;42.632;23.298;2023-10-09T10:05:58;1.30;;;1.20;;
13032;SDS011;6583;42.632;23.298;2023-10-09T10:08:30;1.87;;;1.20;;
13032;SDS011;6583;42.632;23.298;2023-10-09T10:10:59;2.95;;;1.13;;
13032;SDS011;6583;42.632;23.298;2023-10-09T10:16:25;1.77;;;1.07;;
13032;SDS011;6583;42.632;23.298;2023-10-09T10:19:00;4.57;;;1.30;;
13032;SDS011;6583;42.632;23.298;2023-10-09T10:21:32;2.95;;;1.27;;
13032;SDS011;6583;42.632;23.298;2023-10-09T10:24:04;2.15;;;1.20;;
13032;SDS011;6583;42.632;23.298;2023-10-09T10:29:48;2.58;;;1.17;;
13032;SDS011;6583;42.632;23.298;2023-10-09T10:32:59;2.30;;;1.30;;
13032;SDS011;6583;42.632;23.298;2023-10-09T10:35:35;1.55;;;1.02;;
13032;SDS011;6583;42.632;23.298;2023-10-09T10:38:26;2.27;;;1.20;;
13032;SDS011;6583;42.632;23.298;2023-10-09T10:41:07;1.58;;;1.30;;
13032;SDS011;6583;42.632;23.298;2023-10-09T10:43:37;3.60;;;1.10;;
13032;SDS011;6583;42.632;23.298;2023-10-09T10:46:27;1.63;;;1.30;;
13032;SDS011;6583;42.632;23.298;2023-10-09T10:49:00;1.45;;;1.15;;
13032;SDS011;6583;42.632;23.298;2023-10-09T10:51:40;1.25;;;1.15;;
13032;SDS011;6583;42.632;23.298;2023-10-09T10:54:19;1.60;;;1.20;;
13032;SDS011;6583;42.632;23.298;2023-10-09T10:57:17;2.33;;;1.20;;
13032;SDS011;6583;42.632;23.298;2023-10-09T10:59:54;1.70;;;1.20;;
13032;SDS011;6583;42.632;23.298;2023-10-09T11:02:39;1.90;;;1.20;;
13032;SDS011;6583;42.632;23.298;2023-10-09T11:05:08;1.40;;;0.95;;
13032;SDS011;6583;42.632;23.298;2023-10-09T11:07:48;2.22;;;1.20;;
13032;SDS011;6583;42.632;23.298;2023-10-09T11:10:23;2.35;;;1.30;;
13032;SDS011;6583;42.632;23.298;2023-10-09T11:12:56;4.78;;;1.48;;
13032;SDS011;6583;42.632;23.298;2023-10-09T11:15:40;2.20;;;1.13;;
13032;SDS011;6583;42.632;23.298;2023-10-09T11:18:22;1.33;;;1.15;;
13032;SDS011;6583;42.632;23.298;2023-10-09T11:20:52;3.90;;;1.40;;
13032;SDS011;6583;42.632;23.298;2023-10-09T11:23:43;2.30;;;1.10;;
13032;SDS011;6583;42.632;23.298;2023-10-09T11:26:23;2.60;;;1.13;;
13032;SDS011;6583;42.632;23.298;2023-10-09T11:29:05;1.23;;;1.10;;
13032;SDS011;6583;42.632;23.298;2023-10-09T11:31:39;2.83;;;1.20;;
13032;SDS011;6583;42.632;23.298;2023-10-09T11:34:08;3.20;;;1.27;;
13032;SDS011;6583;42.632;23.298;2023-10-09T11:36:54;1.67;;;1.25;;
13032;SDS011;6583;42.632;23.298;2023-10-09T11:39:23;2.67;;;1.08;;
13032;SDS011;6583;42.632;23.298;2023-10-09T11:42:07;3.50;;;1.65;;
13032;SDS011;6583;42.632;23.298;2023-10-09T11:44:38;1.80;;;1.13;;
13032;SDS011;6583;42.632;23.298;2023-10-09T11:47:04;2.20;;;0.88;;
13032;SDS011;6583;42.632;23.298;2023-10-09T11:49:50;1.52;;;1.10;;
13032;SDS011;6583;42.632;23.298;2023-10-09T11:52:30;1.10;;;1.00;;
13032;SDS011;6583;42.632;23.298;2023-10-09T11:55:00;1.80;;;0.75;;
13032;SDS011;6583;42.632;23.298;2023-10-09T11:57:28;1.10;;;1.00;;
13032;SDS011;6583;42.632;23.298;2023-10-09T11:59:58;1.90;;;1.10;;
13032;SDS011;6583;42.632;23.298;2023-10-09T12:02:26;3.33;;;0.90;;
13032;SDS011;6583;42.632;23.298;2023-10-09T12:04:54;1.20;;;0.90;;
13032;SDS011;6583;42.632;23.298;2023-10-09T12:07:24;5.47;;;1.40;;
13032;SDS011;6583;42.632;23.298;2023-10-09T12:09:52;2.00;;;1.00;;
13032;SDS011;6583;42.632;23.298;2023-10-09T12:12:21;2.10;;;0.95;;
13032;SDS011;6583;42.632;23.298;2023-10-09T12:14:51;2.92;;;0.82;;
13032;SDS011;6583;42.632;23.298;2023-10-09T12:17:18;1.77;;;1.00;;
13032;SDS011;6583;42.632;23.298;2023-10-09T12:19:49;1.80;;;1.05;;
13032;SDS011;6583;42.632;23.298;2023-10-09T12:22:17;4.35;;;1.05;;
13032;SDS011;6583;42.632;23.298;2023-10-09T12:24:46;2.45;;;1.00;;
13032;SDS011;6583;42.632;23.298;2023-10-09T12:27:13;1.25;;;1.00;;
13032;SDS011;6583;42.632;23.298;2023-10-09T12:29:42;3.78;;;1.02;;
13032;SDS011;6583;42.632;23.298;2023-10-09T12:32:11;3.15;;;1.20;;
13032;SDS011;6583;42.632;23.298;2023-10-09T12:34:38;2.15;;;0.93;;
13032;SDS011;6583;42.632;23.298;2023-10-09T12:37:07;1.63;;;0.82;;
13032;SDS011;6583;42.632;23.298;2023-10-09T12:39:35;2.67;;;1.17;;
13032;SDS011;6583;42.632;23.298;2023-10-09T12:42:05;3.47;;;1.10;;
13032;SDS011;6583;42.632;23.298;2023-10-09T12:44:33;2.50;;;1.10;;
13032;SDS011;6583;42.632;23.298;2023-10-09T12:47:04;2.70;;;1.08;;
13032;SDS011;6583;42.632;23.298;2023-10-09T12:49:31;1.67;;;0.90;;
13032;SDS011;6583;42.632;23.298;2023-10-09T12:51:57;2.88;;;0.98;;
13032;SDS011;6583;42.632;23.298;2023-10-09T12:54:24;2.83;;;1.20;;
13032;SDS011;6583;42.632;23.298;2023-10-09T12:56:54;2.35;;;1.13;;
13032;SDS011;6583;42.632;23.298;2023-10-09T12:59:22;2.58;;;1.00;;
13032;SDS011;6583;42.632;23.298;2023-10-09T13:01:49;1.42;;;0.80;;
13032;SDS011;6583;42.632;23.298;2023-10-09T13:04:22;3.25;;;1.00;;
13032;SDS011;6583;42.632;23.298;2023-10-09T13:06:56;6.80;;;1.30;;
13032;SDS011;6583;42.632;23.298;2023-10-09T13:09:27;2.78;;;1.20;;
13032;SDS011;6583;42.632;23.298;2023-10-09T13:12:09;3.75;;;1.23;;
13032;SDS011;6583;42.632;23.298;2023-10-09T13:14:43;2.05;;;1.00;;
13032;SDS011;6583;42.632;23.298;2023-10-09T13:17:10;6.63;;;1.40;;
13032;SDS011;6583;42.632;23.298;2023-10-09T13:19:38;3.25;;;1.45;;
13032;SDS011;6583;42.632;23.298;2023-10-09T13:22:05;1.98;;;1.13;;
13032;SDS011;6583;42.632;23.298;2023-10-09T13:24:37;2.50;;;1.30;;
13032;SDS011;6583;42.632;23.298;2023-10-09T13:27:05;1.95;;;1.15;;
13032;SDS011;6583;42.632;23.298;2023-10-09T13:29:36;2.92;;;1.23;;
13032;SDS011;6583;42.632;23.298;2023-10-09T13:32:05;3.78;;;1.55;;
13032;SDS011;6583;42.632;23.298;2023-10-09T13:34:38;2.90;;;1.13;;
13032;SDS011;6583;42.632;23.298;2023-10-09T13:37:09;3.25;;;1.33;;
13032;SDS011;6583;42.632;23.298;2023-10-09T13:39:39;2.38;;;1.17;;
13032;SDS011;6583;42.632;23.298;2023-10-09T13:42:17;2.63;;;1.50;;
13032;SDS011;6583;42.632;23.298;2023-10-09T13:44:45;2.60;;;1.17;;
13032;SDS011;6583;42.632;23.298;2023-10-09T13:47:14;3.80;;;1.38;;
13032;SDS011;6583;42.632;23.298;2023-10-09T13:49:45;2.17;;;1.30;;
13032;SDS011;6583;42.632;23.298;2023-10-09T13:52:15;2.42;;;1.60;;
13032;SDS011;6583;42.632;23.298;2023-10-09T13:54:43;3.58;;;1.23;;
13032;SDS011;6583;42.632;23.298;2023-10-09T13:57:13;2.67;;;1.30;;
13032;SDS011;6583;42.632;23.298;2023-10-09T13:59:40;2.45;;;1.48;;
13032;SDS011;6583;42.632;23.298;2023-10-09T14:02:15;2.15;;;1.40;;
13032;SDS011;6583;42.632;23.298;2023-10-09T14:04:46;2.00;;;1.40;;
13032;SDS011;6583;42.632;23.298;2023-10-09T14:07:13;4.15;;;1.67;;
13032;SDS011;6583;42.632;23.298;2023-10-09T14:09:42;2.85;;;1.50;;
13032;SDS011;6583;42.632;23.298;2023-10-09T14:12:20;2.15;;;1.40;;
13032;SDS011;6583;42.632;23.298;2023-10-09T14:14:47;2.58;;;1.58;;
13032;SDS011;6583;42.632;23.298;2023-10-09T14:17:16;4.75;;;1.52;;
13032;SDS011;6583;42.632;23.298;2023-10-09T14:19:46;2.22;;;1.40;;
13032;SDS011;6583;42.632;23.298;2023-10-09T14:22:13;3.35;;;1.70;;
13032;SDS011;6583;42.632;23.298;2023-10-09T14:24:41;3.83;;;1.40;;
13032;SDS011;6583;42.632;23.298;2023-10-09T14:27:10;3.50;;;1.58;;
13032;SDS011;6583;42.632;23.298;2023-10-09T14:29:42;3.60;;;1.90;;
13032;SDS011;6583;42.632;23.298;2023-10-09T14:32:10;3.88;;;1.90;;
13032;SDS011;6583;42.632;23.298;2023-10-09T14:34:39;4.43;;;1.67;;
13032;SDS011;6583;42.632;23.298;2023-10-09T14:37:11;2.65;;;1.50;;
13032;SDS011;6583;42.632;23.298;2023-10-09T14:39:40;2.53;;;1.63;;
13032;SDS011;6583;42.632;23.298;2023-10-09T14:42:06;3.15;;;2.00;;
13032;SDS011;6583;42.632;23.298;2023-10-09T14:44:35;4.28;;;1.80;;
13032;SDS011;6583;42.632;23.298;2023-10-09T14:47:03;4.60;;;1.70;;
13032;SDS011;6583;42.632;23.298;2023-10-09T14:49:30;2.55;;;1.52;;
13032;SDS011;6583;42.632;23.298;2023-10-09T14:52:01;3.75;;;2.00;;
13032;SDS011;6583;42.632;23.298;2023-10-09T14:54:28;4.95;;;1.92;;
13032;SDS011;6583;42.632;23.298;2023-10-09T14:56:54;3.55;;;1.83;;
13032;SDS011;6583;42.632;23.298;2023-10-09T14:59:21;5.40;;;2.08;;
13032;SDS011;6583;42.632;23.298;2023-10-09T15:01:48;2.85;;;1.90;;
13032;SDS011;6583;42.632;23.298;2023-10-09T15:04:15;2.45;;;1.88;;
13032;SDS011;6583;42.632;23.298;2023-10-09T15:06:42;2.67;;;1.70;;
13032;SDS011;6583;42.632;23.298;2023-10-09T15:09:10;3.42;;;1.90;;
13032;SDS011;6583;42.632;23.298;2023-10-09T15:11:47;4.55;;;1.75;;
13032;SDS011;6583;42.632;23.298;2023-10-09T15:14:14;4.95;;;1.80;;
13032;SDS011;6583;42.632;23.298;2023-10-09T15:16:41;2.83;;;1.90;;
13032;SDS011;6583;42.632;23.298;2023-10-09T15:19:08;2.72;;;1.52;;
13032;SDS011;6583;42.632;23.298;2023-10-09T15:21:35;9.43;;;2.33;;
13032;SDS011;6583;42.632;23.298;2023-10-09T15:24:09;4.07;;;1.98;;
13032;SDS011;6583;42.632;23.298;2023-10-09T15:26:40;3.78;;;1.88;;
13032;SDS011;6583;42.632;23.298;2023-10-09T15:29:07;8.35;;;2.50;;
13032;SDS011;6583;42.632;23.298;2023-10-09T15:31:35;3.83;;;2.00;;
13032;SDS011;6583;42.632;23.298;2023-10-09T15:34:02;5.95;;;2.55;;